Time;durP1;ratioP1;P1;durP2;ratioP2;P2;SDS_P1;SDS_P2;PMS_P1;PMS_P2;Temp;Humidity;BMP_temperature;BMP_pressure;BME280_temperature;BME280_humidity;BME280_pressure;Samples;Min_cycle;Max_cycle;Signal;HPM_P1;HPM_P2
2022/04/01 00:02:37;;;;;;;21.05;16.55;;;;;;;8.09;73.02;94571.81;5005530;28;20129;-89
2022/04/01 00:05:13;;;;;;;21.40;16.90;;;;;;;8.11;72.04;94569.81;5005073;28;20046;-86
2022/04/01 00:07:53;;;;;;;20.55;15.98;;;;;;;8.14;71.98;94569.34;5003859;28;20069;-87
2022/04/01 00:10:29;;;;;;;20.50;16.20;;;;;;;8.17;71.96;94568.13;5005079;28;20464;-90
2022/04/01 00:13:10;;;;;;;21.02;15.50;;;;;;;8.22;73.00;94573.47;5004405;28;20050;-90
2022/04/01 00:15:50;;;;;;;16.90;13.52;;;;;;;8.25;71.82;94579.03;5004663;28;20081;-81
2022/04/01 00:18:26;;;;;;;16.70;12.15;;;;;;;8.27;71.85;94576.22;5003440;28;20062;-85
2022/04/01 00:21:10;;;;;;;17.30;12.85;;;;;;;8.29;71.94;94581.16;5003309;28;20412;-82
2022/04/01 00:23:59;;;;;;;14.93;12.60;;;;;;;8.28;72.41;94590.00;5003485;28;20519;-87
2022/04/01 00:26:43;;;;;;;12.73;10.73;;;;;;;8.30;71.39;94580.97;5001942;28;20046;-82
2022/04/01 00:32:08;;;;;;;8.70;7.15;;;;;;;8.15;68.97;94581.31;5003897;28;20474;-82
2022/04/01 00:34:51;;;;;;;8.30;6.88;;;;;;;8.02;68.36;94586.66;5002737;28;20050;-86
2022/04/01 00:37:29;;;;;;;9.15;7.47;;;;;;;7.92;68.64;94581.97;5001635;28;20118;-85
2022/04/01 00:40:12;;;;;;;9.82;7.95;;;;;;;7.94;69.42;94586.94;5003405;28;20504;-84
2022/04/01 00:43:00;;;;;;;;;;;;;;;7.95;69.64;94583.34;5005032;28;20054;-87
2022/04/01 00:45:49;;;;;;;10.43;8.35;;;;;;;7.96;71.33;94582.31;5003137;28;19922;-81
2022/04/01 00:48:31;;;;;;;14.13;9.20;;;;;;;7.97;70.32;94589.09;5002962;28;20479;-87
2022/04/01 00:51:15;;;;;;;9.43;7.53;;;;;;;7.96;71.34;94592.69;5002827;28;20054;-84
2022/04/01 00:56:46;;;;;;;6.13;5.38;;;;;;;7.96;70.08;94587.50;5001763;28;20322;-89
2022/04/01 00:59:25;;;;;;;8.38;5.50;;;;;;;7.92;68.89;94594.94;5002520;28;20500;-90
2022/04/01 01:02:08;;;;;;;5.65;5.00;;;;;;;7.85;68.49;94591.63;5002538;28;20084;-87
2022/04/01 01:04:52;;;;;;;7.68;5.93;;;;;;;7.83;70.06;94593.63;5004083;28;20086;-89
2022/04/01 01:07:25;;;;;;;9.27;6.07;;;;;;;7.79;69.52;94593.25;5004822;28;20047;-89
2022/04/01 01:09:59;;;;;;;6.82;5.20;;;;;;;7.78;69.91;94594.28;5033658;22;20046;-79
2022/04/01 01:12:27;;;;;;;6.10;4.47;;;;;;;7.76;69.28;94593.69;4995169;28;20058;-80
2022/04/01 01:14:55;;;;;;;4.90;3.90;;;;;;;7.72;68.97;94589.94;4994768;28;20057;-79
2022/04/01 01:17:24;;;;;;;5.50;4.05;;;;;;;7.70;68.80;94598.94;4994228;28;20141;-80
2022/04/01 01:19:52;;;;;;;7.60;4.45;;;;;;;7.70;69.42;94596.34;4994909;28;20050;-79
2022/04/01 01:22:19;;;;;;;4.70;4.07;;;;;;;7.69;69.15;94600.72;4994779;28;20058;-79
2022/04/01 01:24:49;;;;;;;5.38;4.47;;;;;;;7.68;68.94;94595.75;4994649;28;20050;-79
2022/04/01 01:27:16;;;;;;;6.60;4.45;;;;;;;7.60;69.13;94597.59;4994236;28;20046;-80
2022/04/01 01:29:45;;;;;;;5.45;4.50;;;;;;;7.55;68.66;94596.66;4994487;28;20050;-79
2022/04/01 01:32:17;;;;;;;6.25;5.22;;;;;;;7.50;69.22;94599.91;4994833;28;20046;-79
2022/04/01 01:34:44;;;;;;;7.40;5.10;;;;;;;7.47;69.27;94592.53;4994460;28;20657;-79
2022/04/01 01:37:12;;;;;;;11.48;5.30;;;;;;;7.48;69.43;94598.50;4993870;28;20050;-79
2022/04/01 01:39:41;;;;;;;5.75;4.80;;;;;;;7.42;69.01;94595.75;4994601;28;20049;-79
2022/04/01 01:42:10;;;;;;;7.65;4.63;;;;;;;7.36;69.21;94601.78;4994585;28;20057;-79
2022/04/01 01:44:38;;;;;;;4.40;3.70;;;;;;;7.32;68.39;94597.22;4994442;28;20133;-79
2022/04/01 01:47:06;;;;;;;3.92;3.00;;;;;;;7.25;67.88;94602.44;4993681;28;20072;-79
2022/04/01 01:49:33;;;;;;;6.20;4.20;;;;;;;7.20;68.67;94608.28;4994205;28;20064;-79
2022/04/01 01:54:49;;;;;;;3.40;3.10;;;;;;;7.10;67.33;94601.94;4994640;28;20062;-79
2022/04/01 01:57:20;;;;;;;3.47;2.90;;;;;;;7.05;66.89;94605.19;4993610;28;20142;-79
2022/04/01 01:59:48;;;;;;;4.43;3.15;;;;;;;7.04;67.22;94598.41;4994119;28;20058;-79
2022/04/01 02:02:17;;;;;;;3.63;2.92;;;;;;;7.02;67.44;94597.81;4994267;28;20061;-80
2022/04/01 02:04:46;;;;;;;4.65;2.97;;;;;;;7.01;67.79;94602.19;4994583;28;20105;-80
2022/04/01 02:07:14;;;;;;;3.45;3.08;;;;;;;7.03;68.59;94602.00;4993471;28;20424;-79
2022/04/01 02:09:46;;;;;;;4.25;3.25;;;;;;;7.04;68.59;94601.00;4993794;28;20475;-80
2022/04/01 02:12:16;;;;;;;3.10;2.80;;;;;;;7.03;67.71;94608.97;4994085;28;20522;-79
2022/04/01 02:14:45;;;;;;;5.50;3.58;;;;;;;6.99;68.05;94604.19;4993957;28;20304;-79
2022/04/01 02:17:13;;;;;;;3.30;2.90;;;;;;;6.92;68.05;94603.44;4993333;28;20073;-79
2022/04/01 02:19:40;;;;;;;3.47;3.10;;;;;;;6.85;67.35;94602.69;4993548;28;20518;-80
2022/04/01 02:22:08;;;;;;;3.70;3.40;;;;;;;6.83;67.51;94604.69;4993874;28;20497;-79
2022/04/01 02:24:36;;;;;;;6.25;4.00;;;;;;;6.83;68.06;94612.47;4993758;28;20061;-79
2022/04/01 02:27:04;;;;;;;3.35;3.05;;;;;;;6.84;68.16;94605.47;4992950;28;20508;-80
2022/04/01 02:29:31;;;;;;;3.78;3.15;;;;;;;6.84;67.98;94610.66;4993674;28;20050;-79
2022/04/01 02:32:00;;;;;;;5.28;3.38;;;;;;;6.82;68.85;94613.47;4993748;28;20054;-79
2022/04/01 02:34:28;;;;;;;5.13;3.60;;;;;;;6.79;67.30;94617.25;4993595;28;20050;-80
2022/04/01 02:36:58;;;;;;;5.88;4.00;;;;;;;6.76;67.44;94616.91;4992915;28;20053;-79
2022/04/01 02:39:25;;;;;;;6.63;3.85;;;;;;;6.76;68.36;94616.91;4993585;28;20065;-79
2022/04/01 02:41:53;;;;;;;4.38;3.58;;;;;;;6.72;67.07;94618.31;4993601;28;20142;-80
2022/04/01 02:44:21;;;;;;;5.57;3.00;;;;;;;6.67;67.45;94616.34;4993935;28;20054;-79
2022/04/01 02:46:49;;;;;;;4.63;3.45;;;;;;;6.69;68.24;94621.28;4992965;28;20520;-80
2022/04/01 02:49:19;;;;;;;5.55;3.65;;;;;;;6.65;66.54;94617.53;4993946;28;20050;-79
2022/04/01 02:51:48;;;;;;;3.20;2.90;;;;;;;6.58;65.50;94623.53;4993636;28;20046;-80
2022/04/01 02:54:16;;;;;;;3.30;3.00;;;;;;;6.55;67.57;94621.34;4993310;28;20133;-80
2022/04/01 02:56:44;;;;;;;3.15;2.85;;;;;;;6.53;66.38;94619.97;4992943;28;20054;-79
2022/04/01 02:59:12;;;;;;;3.28;2.83;;;;;;;6.47;66.73;94624.19;4992898;28;20054;-79
2022/04/01 03:01:41;;;;;;;3.38;3.13;;;;;;;6.46;67.33;94620.00;4993242;28;20125;-79
2022/04/01 03:04:10;;;;;;;3.30;3.00;;;;;;;6.46;67.54;94625.16;4993532;28;20046;-79
2022/04/01 03:06:42;;;;;;;3.17;2.72;;;;;;;6.44;66.63;94631.56;4993056;28;20073;-79
2022/04/01 03:09:10;;;;;;;3.33;3.03;;;;;;;6.43;67.87;94630.78;4993025;28;20046;-79
2022/04/01 03:11:38;;;;;;;3.90;3.05;;;;;;;6.40;67.16;94637.13;4992857;28;20505;-79
2022/04/01 03:14:08;;;;;;;3.15;2.78;;;;;;;6.34;66.84;94624.19;4993284;28;20069;-79
2022/04/01 03:16:37;;;;;;;2.75;2.40;;;;;;;6.27;67.12;94631.19;4992468;28;20050;-79
2022/04/01 03:19:08;;;;;;;3.10;2.80;;;;;;;6.18;65.57;94633.22;4993248;28;20109;-79
2022/04/01 03:21:38;;;;;;;3.08;2.78;;;;;;;6.17;67.63;94629.03;4993106;28;20138;-79
2022/04/01 03:24:09;;;;;;;3.38;2.60;;;;;;;6.20;68.78;94636.38;4993100;28;20061;-79
2022/04/01 03:26:37;;;;;;;2.28;2.08;;;;;;;6.17;66.56;94629.84;4992753;28;20125;-79
2022/04/01 03:29:06;;;;;;;2.90;2.60;;;;;;;6.10;67.54;94636.81;5000887;28;20056;-79
2022/04/01 03:31:34;;;;;;;2.80;2.50;;;;;;;6.09;68.35;94635.22;5015885;28;20076;-79
2022/04/01 03:34:02;;;;;;;2.47;2.28;;;;;;;6.07;69.57;94629.44;5016156;28;20082;-79
2022/04/01 03:36:29;;;;;;;2.20;1.90;;;;;;;6.10;69.47;94631.66;5003310;28;20042;-79
2022/04/01 03:38:58;;;;;;;2.13;1.83;;;;;;;6.09;68.22;94632.63;4993077;28;20049;-81
2022/04/01 03:41:29;;;;;;;2.15;1.85;;;;;;;6.13;67.98;94635.63;4992807;28;20055;-79
2022/04/01 03:44:00;;;;;;;1.95;1.65;;;;;;;6.16;68.40;94641.16;4993170;28;20054;-79
2022/04/01 03:46:37;;;;;;;1.73;1.63;;;;;;;6.18;68.82;94638.38;4992601;28;20074;-80
2022/04/01 03:49:07;;;;;;;3.95;1.80;;;;;;;6.21;69.31;94635.41;4993112;28;20072;-79
2022/04/01 03:51:39;;;;;;;3.33;2.00;;;;;;;6.24;69.20;94639.38;4993138;28;20081;-79
2022/04/01 03:54:06;;;;;;;2.28;1.95;;;;;;;6.24;68.58;94637.59;4993016;28;20085;-79
2022/04/01 03:56:36;;;;;;;3.20;2.00;;;;;;;6.25;68.62;94638.38;4992180;28;20424;-79
2022/04/01 03:59:06;;;;;;;2.05;1.55;;;;;;;6.24;68.28;94637.59;4993143;28;20680;-79
2022/04/01 04:01:35;;;;;;;2.38;1.75;;;;;;;6.24;69.17;94636.78;4993081;28;20130;-79
2022/04/01 04:04:04;;;;;;;1.50;1.40;;;;;;;6.20;67.96;94633.81;4992928;28;20051;-79
2022/04/01 04:06:34;;;;;;;2.20;2.00;;;;;;;6.21;68.60;94634.59;4992195;28;20082;-80
2022/04/01 04:09:03;;;;;;;2.08;1.88;;;;;;;6.21;67.92;94632.00;4992761;28;20114;-79
2022/04/01 04:11:33;;;;;;;1.80;1.60;;;;;;;6.21;68.61;94635.41;4992661;28;20081;-80
2022/04/01 04:14:04;;;;;;;2.28;2.08;;;;;;;6.23;68.59;94635.19;4996460;28;20505;-80
2022/04/01 04:16:38;;;;;;;2.22;1.88;;;;;;;6.24;69.09;94637.59;4996091;28;20053;-80
2022/04/01 04:19:09;;;;;;;2.30;2.05;;;;;;;6.22;68.52;94643.97;4996411;28;20049;-79
2022/04/01 04:21:47;;;;;;;3.30;1.90;;;;;;;6.19;68.05;94645.16;4996379;28;20058;-80
2022/04/01 04:24:20;;;;;;;2.05;1.85;;;;;;;6.13;66.42;94643.38;4996185;28;20060;-79
2022/04/01 04:26:50;;;;;;;2.63;2.00;;;;;;;6.07;67.92;94642.38;4995438;28;20058;-80
2022/04/01 04:29:20;;;;;;;1.67;1.58;;;;;;;6.06;67.18;94640.81;4996189;28;20054;-79
2022/04/01 04:31:58;;;;;;;1.80;1.48;;;;;;;6.06;67.48;94640.81;4995341;28;20520;-79
2022/04/01 04:34:31;;;;;;;1.60;1.50;;;;;;;6.02;67.34;94639.63;4995956;28;20054;-79
2022/04/01 04:37:00;;;;;;;1.65;1.55;;;;;;;6.00;67.52;94651.97;4996003;28;20054;-79
2022/04/01 04:39:31;;;;;;;38.97;24.25;;;;;;;6.00;69.19;94646.78;4995971;28;20050;-79
2022/04/01 04:41:59;;;;;;;20.40;13.75;;;;;;;6.02;68.95;94644.00;4998479;28;20398;-80
2022/04/01 04:44:30;;;;;;;3.58;2.70;;;;;;;6.02;68.36;94647.38;4997357;28;20053;-80
2022/04/01 04:46:58;;;;;;;3.58;1.83;;;;;;;6.01;68.40;94647.56;4996074;28;20401;-79
2022/04/01 04:49:27;;;;;;;3.25;1.75;;;;;;;5.98;68.38;94644.38;4995765;28;20097;-79
2022/04/01 04:51:56;;;;;;;2.65;2.17;;;;;;;5.95;68.50;94656.94;4995755;28;20051;-79
2022/04/01 04:54:25;;;;;;;2.30;2.00;;;;;;;5.94;68.31;94655.31;4995528;28;20137;-79
2022/04/01 04:56:54;;;;;;;2.50;2.15;;;;;;;5.91;69.15;94653.13;4994788;28;20085;-80
2022/04/01 04:59:23;;;;;;;2.28;1.70;;;;;;;5.91;68.43;94655.72;4995210;28;20607;-80
2022/04/01 05:01:58;;;;;;;1.70;1.60;;;;;;;5.88;66.93;94656.09;4995523;28;20050;-79
2022/04/01 05:04:46;;;;;;;1.85;1.75;;;;;;;5.87;68.20;94659.72;4995710;28;20065;-79
2022/04/01 05:07:29;;;;;;;1.60;1.50;;;;;;;5.85;69.16;94664.28;4994657;28;20351;-79
2022/04/01 05:10:00;;;;;;;;;;;;;;;5.85;69.47;94667.66;4995634;28;20133;-79
2022/04/01 05:12:34;;;;;;;1.85;1.73;;;;;;;5.82;69.26;94670.66;4996794;28;19921;-79
2022/04/01 05:15:08;;;;;;;2.10;1.90;;;;;;;5.78;68.69;94669.47;4997379;28;20058;-79
2022/04/01 05:17:39;;;;;;;1.73;1.40;;;;;;;5.77;67.71;94679.03;4995750;28;20061;-79
2022/04/01 05:20:15;;;;;;;1.80;1.70;;;;;;;5.77;68.46;94679.03;4997282;28;20511;-79
2022/04/01 05:22:48;;;;;;;2.58;1.90;;;;;;;5.76;68.25;94679.22;4995830;28;20065;-79
2022/04/01 05:25:20;;;;;;;2.88;1.80;;;;;;;5.74;68.42;94678.59;4995444;28;20519;-79
2022/04/01 05:27:51;;;;;;;2.85;2.03;;;;;;;5.74;69.52;94681.97;4994876;28;20106;-79
2022/04/01 05:30:21;;;;;;;1.73;1.63;;;;;;;5.73;67.95;94688.16;4995370;28;20047;-79
2022/04/01 05:32:58;;;;;;;9.13;2.15;;;;;;;5.75;69.30;94690.53;4995727;28;20402;-79
2022/04/01 05:35:29;;;;;;;1.70;1.60;;;;;;;5.75;68.93;94690.53;4995707;28;20054;-79
2022/04/01 05:37:58;;;;;;;2.20;1.55;;;;;;;5.74;68.67;94689.75;4994644;28;20051;-79
2022/04/01 05:40:27;;;;;;;1.80;1.67;;;;;;;5.75;69.02;94690.53;4994423;28;20057;-79
2022/04/01 05:42:56;;;;;;;2.08;1.63;;;;;;;5.77;69.37;94697.13;4996657;28;20058;-82
2022/04/01 05:45:26;;;;;;;1.42;1.33;;;;;;;5.77;69.06;94699.72;4994048;28;20057;-81
2022/04/01 05:47:55;;;;;;;1.80;1.58;;;;;;;5.80;68.96;94702.91;4994396;28;20046;-81
2022/04/01 05:50:24;;;;;;;2.30;1.35;;;;;;;5.78;68.44;94703.09;4994920;28;20057;-79
2022/04/01 05:52:53;;;;;;;1.80;1.38;;;;;;;5.76;69.02;94705.09;4995577;28;20050;-79
2022/04/01 05:55:22;;;;;;;1.73;1.63;;;;;;;5.72;67.98;94704.66;4995504;28;20057;-79
2022/04/01 05:57:51;;;;;;;2.00;1.80;;;;;;;5.71;68.34;94697.91;4994366;28;20061;-79
2022/04/01 06:00:18;;;;;;;1.60;1.50;;;;;;;5.70;67.94;94709.25;4995048;28;20053;-79
2022/04/01 06:03:15;;;;;;;1.48;1.38;;;;;;;5.71;68.39;94716.03;4995239;28;20050;-79
2022/04/01 06:05:48;;;;;;;1.50;1.40;;;;;;;5.71;68.23;94713.44;4978938;28;20062;-79
2022/04/01 06:08:18;;;;;;;;;;;;;;;5.71;69.03;94710.84;4995254;28;20061;-79
2022/04/01 06:10:59;;;;;;;1.95;1.33;;;;;;;5.69;68.47;94715.41;4994270;28;19925;-79
2022/04/01 06:13:41;;;;;;;2.22;1.65;;;;;;;5.67;68.54;94706.28;4994136;28;20506;-79
2022/04/01 06:16:20;;;;;;;1.75;1.52;;;;;;;5.65;68.65;94710.84;4993540;28;20074;-79
2022/04/01 06:18:54;;;;;;;1.27;1.17;;;;;;;5.61;67.89;94715.59;4994013;28;20046;-79
2022/04/01 06:21:24;;;;;;;1.98;1.88;;;;;;;5.58;68.50;94713.41;4993910;28;20050;-79
2022/04/01 06:24:06;;;;;;;1.35;1.23;;;;;;;5.56;69.05;94710.22;4994118;28;20057;-79
2022/04/01 06:26:38;;;;;;;2.63;1.52;;;;;;;5.53;67.39;94720.94;4993683;28;20062;-79
2022/04/01 06:29:17;;;;;;;1.80;1.70;;;;;;;5.50;68.59;94722.16;4994067;28;20062;-79
2022/04/01 06:31:49;;;;;;;1.42;1.33;;;;;;;5.52;69.34;94730.50;4994153;28;20061;-79
2022/04/01 06:34:22;;;;;;;1.77;1.67;;;;;;;5.55;69.74;94721.56;4993497;28;20076;-79
2022/04/01 06:37:00;;;;;;;0.90;0.90;;;;;;;5.54;69.37;94725.16;4993783;28;20058;-79
2022/04/01 06:39:36;;;;;;;1.70;1.20;;;;;;;5.53;68.70;94726.94;4994009;28;20073;-79
2022/04/01 06:42:10;;;;;;;1.20;1.10;;;;;;;5.53;68.41;94723.53;4994158;28;20061;-79
2022/04/01 06:44:37;;;;;;;1.40;1.30;;;;;;;5.50;68.97;94735.06;4993578;28;20504;-79
2022/04/01 06:47:05;;;;;;;0.95;0.95;;;;;;;5.48;68.66;94736.28;4993373;28;20046;-79
2022/04/01 06:49:34;;;;;;;1.25;1.10;;;;;;;5.48;69.69;94742.22;4993896;28;20058;-79
2022/04/01 06:52:03;;;;;;;1.50;1.40;;;;;;;5.48;69.78;94733.69;4994005;28;20428;-79
2022/04/01 06:54:30;;;;;;;1.30;1.20;;;;;;;5.45;68.76;94734.09;4994214;28;20057;-79
2022/04/01 06:56:58;;;;;;;1.33;1.08;;;;;;;5.43;69.04;94729.09;4993168;28;20046;-79
2022/04/01 06:59:26;;;;;;;1.08;1.08;;;;;;;5.43;69.60;94734.28;4994453;28;20527;-79
2022/04/01 07:01:54;;;;;;;1.33;1.23;;;;;;;5.44;69.96;94730.69;4995112;28;20116;-79
2022/04/01 07:04:22;;;;;;;2.78;1.75;;;;;;;5.41;69.68;94728.50;4994093;28;20064;-79
2022/04/01 07:06:50;;;;;;;2.38;1.10;;;;;;;5.39;68.65;94732.28;4993150;28;20050;-79
2022/04/01 07:09:18;;;;;;;1.50;1.40;;;;;;;5.36;69.31;94729.09;4993922;28;20453;-79
2022/04/01 07:11:46;;;;;;;1.73;1.63;;;;;;;5.35;68.96;94737.81;5023788;23;20531;-81
2022/04/01 07:14:13;;;;;;;1.63;1.17;;;;;;;5.32;68.89;94735.63;5006722;28;20053;-81
2022/04/01 07:16:41;;;;;;;1.70;1.60;;;;;;;5.35;69.03;94743.00;5006554;28;20050;-81
2022/04/01 07:19:11;;;;;;;2.13;1.50;;;;;;;5.36;69.86;94739.44;5006492;28;20073;-80
2022/04/01 07:21:38;;;;;;;1.55;1.45;;;;;;;5.38;69.52;94739.25;5006882;28;20114;-81
2022/04/01 07:24:08;;;;;;;2.10;1.90;;;;;;;5.39;69.75;94747.78;5007621;28;20135;-82
2022/04/01 07:26:36;;;;;;;1.67;1.58;;;;;;;5.40;69.43;94745.03;5006289;28;20046;-81
2022/04/01 07:29:04;;;;;;;1.52;1.40;;;;;;;5.39;69.11;94745.19;5015424;28;20035;-81
2022/04/01 07:34:36;;;;;;;1.65;1.55;;;;;;;5.40;70.09;94759.72;5013080;28;20451;-81
2022/04/01 07:37:05;;;;;;;1.65;1.50;;;;;;;5.40;70.02;94754.53;5008414;28;20065;-81
2022/04/01 07:39:34;;;;;;;1.52;1.42;;;;;;;5.41;70.59;94754.34;5008225;28;20046;-82
2022/04/01 07:42:01;;;;;;;1.67;1.58;;;;;;;5.41;69.87;94750.97;5007601;28;20050;-81
2022/04/01 07:44:29;;;;;;;1.88;1.77;;;;;;;5.41;70.17;94748.41;5007116;28;20524;-81
2022/04/01 07:46:57;;;;;;;1.48;1.38;;;;;;;5.40;69.83;94754.53;5009711;28;20050;-81
2022/04/01 07:49:25;;;;;;;2.22;2.03;;;;;;;5.38;69.71;94752.16;5011728;28;20133;-82
2022/04/01 07:52:14;;;;;;;2.00;1.90;;;;;;;5.34;69.19;94756.94;5011630;28;20076;-81
2022/04/01 07:54:49;;;;;;;1.80;1.70;;;;;;;5.32;69.75;94763.28;5010595;28;20114;-82
2022/04/01 07:57:19;;;;;;;1.90;1.60;;;;;;;5.33;69.61;94760.47;5008935;28;20046;-81
2022/04/01 07:59:47;;;;;;;1.90;1.70;;;;;;;5.32;69.21;94764.06;5010678;28;20085;-81
2022/04/01 08:02:15;;;;;;;2.50;1.45;;;;;;;5.32;69.52;94761.50;5010721;28;20038;-81
2022/04/01 08:04:43;;;;;;;1.92;1.60;;;;;;;5.32;69.82;94763.28;5009896;28;20068;-81
2022/04/01 08:07:14;;;;;;;1.42;1.33;;;;;;;5.31;70.14;94765.09;5010109;28;20398;-82
2022/04/01 08:09:42;;;;;;;3.65;1.70;;;;;;;5.32;69.69;94768.47;5010428;28;20056;-81
2022/04/01 08:12:11;;;;;;;1.58;1.48;;;;;;;5.31;69.45;94780.59;5009649;28;20050;-81
2022/04/01 08:14:40;;;;;;;1.70;1.52;;;;;;;5.29;69.48;94769.66;5009784;28;20050;-82
2022/04/01 08:17:11;;;;;;;2.25;1.52;;;;;;;5.30;69.56;94770.44;5009705;28;20133;-82
2022/04/01 08:19:39;;;;;;;1.40;1.30;;;;;;;5.30;69.22;94771.22;5010580;28;20402;-81
2022/04/01 08:22:07;;;;;;;1.90;1.80;;;;;;;5.33;69.66;94770.81;5010735;28;20062;-81
2022/04/01 08:24:35;;;;;;;1.88;1.77;;;;;;;5.33;69.51;94773.41;5009509;28;20050;-82
2022/04/01 08:27:03;;;;;;;1.73;1.63;;;;;;;5.35;69.39;94783.56;5008936;28;20046;-81
2022/04/01 08:29:33;;;;;;;2.28;1.73;;;;;;;5.33;69.06;94783.75;5009666;28;20042;-81
2022/04/01 08:32:01;;;;;;;1.73;1.63;;;;;;;5.29;69.95;94787.75;5008868;28;20057;-83
2022/04/01 08:34:29;;;;;;;2.05;1.85;;;;;;;5.31;70.69;94783.19;5009509;28;20054;-82
2022/04/01 08:36:56;;;;;;;1.75;1.65;;;;;;;5.32;70.21;94789.94;5008745;28;20061;-81
2022/04/01 08:39:24;;;;;;;2.05;1.73;;;;;;;5.35;70.18;94788.75;5009249;28;20046;-81
2022/04/01 08:41:52;;;;;;;1.42;1.33;;;;;;;5.34;69.28;94792.34;5010181;28;20050;-82
2022/04/01 08:44:19;;;;;;;1.90;1.45;;;;;;;5.33;69.79;94799.25;5009415;28;20055;-82
2022/04/01 08:46:48;;;;;;;2.80;1.90;;;;;;;5.33;69.24;94803.66;5008826;28;20062;-81
2022/04/01 08:49:16;;;;;;;1.55;1.42;;;;;;;5.31;69.75;94803.03;5009340;28;20118;-81
2022/04/01 08:51:44;;;;;;;2.38;2.00;;;;;;;5.28;70.30;94804.22;5010014;28;20057;-81
2022/04/01 08:54:18;;;;;;;1.75;1.65;;;;;;;5.26;70.05;94800.25;5009175;28;20150;-82
2022/04/01 08:56:46;;;;;;;1.50;1.13;;;;;;;5.21;69.30;94807.78;5008109;28;20066;-82
2022/04/01 08:59:13;;;;;;;2.53;2.33;;;;;;;5.20;69.92;94809.56;5006822;28;20054;-81
2022/04/01 09:01:43;;;;;;;1.70;1.58;;;;;;;5.22;70.54;94812.75;5007423;28;20050;-82
2022/04/01 09:04:20;;;;;;;1.70;1.42;;;;;;;5.22;71.46;94817.91;5007437;28;20054;-81
2022/04/01 09:06:48;;;;;;;2.08;1.60;;;;;;;5.25;70.48;94819.34;5007678;28;20136;-82
2022/04/01 09:09:25;;;;;;;1.98;1.10;;;;;;;5.22;69.71;94828.25;5008032;28;20066;-82
2022/04/01 09:12:07;;;;;;;1.10;1.10;;;;;;;5.22;68.79;94825.66;5007589;28;20093;-81
2022/04/01 09:14:36;;;;;;;2.85;1.50;;;;;;;5.24;70.19;94820.31;5007353;28;20050;-81
2022/04/01 09:17:05;;;;;;;1.73;1.40;;;;;;;5.26;70.15;94826.88;5008219;28;20054;-81
2022/04/01 09:19:36;;;;;;;2.67;1.67;;;;;;;5.27;70.32;94835.44;5007985;28;20058;-81
2022/04/01 09:22:20;;;;;;;1.98;1.70;;;;;;;5.29;70.23;94836.03;5009076;28;20098;-82
2022/04/01 09:24:56;;;;;;;2.88;2.42;;;;;;;5.29;70.38;94844.63;5006487;28;20074;-81
2022/04/01 09:27:41;;;;;;;3.42;2.10;;;;;;;5.30;70.24;94842.81;5006428;28;20050;-80
2022/04/01 09:30:11;;;;;;;2.28;1.73;;;;;;;5.29;69.99;94847.19;5007411;28;20051;-81
2022/04/01 09:32:40;;;;;;;1.90;1.70;;;;;;;5.32;69.85;94846.00;5008289;28;20046;-82
2022/04/01 09:35:11;;;;;;;3.08;1.65;;;;;;;5.30;69.57;94835.06;5008372;28;20050;-81
2022/04/01 09:37:41;;;;;;;2.03;1.63;;;;;;;5.28;69.84;94840.41;5007518;28;20050;-82
2022/04/01 09:40:10;;;;;;;3.28;1.40;;;;;;;5.29;69.56;94842.03;5007937;28;20117;-81
2022/04/01 09:42:38;;;;;;;2.00;1.33;;;;;;;5.28;69.79;94835.25;5009719;28;20060;-81
2022/04/01 09:45:07;;;;;;;1.73;1.30;;;;;;;5.19;68.64;94841.56;5008876;28;20523;-82
2022/04/01 09:47:37;;;;;;;1.40;1.30;;;;;;;5.17;69.46;94846.13;5007719;28;20568;-81
2022/04/01 09:50:15;;;;;;;0.90;0.90;;;;;;;5.14;68.67;94854.28;5007308;28;20065;-81
2022/04/01 09:52:45;;;;;;;1.40;1.30;;;;;;;5.12;68.88;94848.50;5007279;28;20157;-81
2022/04/01 09:55:13;;;;;;;2.33;1.60;;;;;;;5.13;69.68;94852.66;5007119;28;20042;-82
2022/04/01 09:57:41;;;;;;;1.10;1.10;;;;;;;5.16;69.58;94847.13;5005638;28;20519;-82
2022/04/01 10:00:09;;;;;;;2.10;1.90;;;;;;;5.18;69.65;94857.25;5006827;28;20129;-81
2022/04/01 10:02:39;;;;;;;1.30;1.20;;;;;;;5.18;69.29;94859.84;5006364;28;20117;-82
2022/04/01 10:05:07;;;;;;;1.50;1.40;;;;;;;5.19;69.50;94859.66;5005744;28;20485;-81
2022/04/01 10:07:38;;;;;;;1.60;1.50;;;;;;;5.18;70.01;94860.63;5006543;28;20047;-82
2022/04/01 10:10:07;;;;;;;1.50;1.40;;;;;;;5.19;70.50;94862.25;5006035;28;20146;-81
2022/04/01 10:12:41;;;;;;;1.58;1.48;;;;;;;5.21;69.70;94860.28;5005949;28;20042;-81
2022/04/01 10:15:10;;;;;;;1.35;1.25;;;;;;;5.21;69.89;94868.03;5013563;28;20090;-80
2022/04/01 10:17:57;;;;;;;1.55;1.38;;;;;;;5.20;69.32;94866.41;5017944;28;20053;-80
2022/04/01 10:20:31;;;;;;;1.52;1.27;;;;;;;5.18;69.73;94865.81;5014151;28;20081;-81
2022/04/01 10:23:01;;;;;;;1.20;1.10;;;;;;;5.17;69.90;94866.81;5008455;28;20493;-81
2022/04/01 10:25:40;;;;;;;2.50;2.10;;;;;;;5.15;69.17;94877.34;5006896;28;20054;-81
2022/04/01 10:28:09;;;;;;;2.20;1.50;;;;;;;5.13;70.71;94868.97;5006200;28;20050;-81
2022/04/01 10:30:40;;;;;;;1.13;1.10;;;;;;;5.14;69.79;94874.97;5006094;28;20085;-81
2022/04/01 10:33:09;;;;;;;1.80;1.30;;;;;;;5.16;69.98;94878.94;5007001;28;20464;-81
2022/04/01 10:35:38;;;;;;;1.27;1.17;;;;;;;5.17;69.97;94879.75;5007539;28;20046;-80
2022/04/01 10:38:19;;;;;;;1.35;1.10;;;;;;;5.15;70.02;94872.16;5006399;28;20054;-81
2022/04/01 10:40:53;;;;;;;1.30;1.20;;;;;;;5.18;70.31;94875.34;5006685;28;20109;-81
2022/04/01 10:43:22;;;;;;;1.30;1.00;;;;;;;5.16;69.64;94875.56;5006321;28;20089;-81
2022/04/01 10:45:59;;;;;;;1.38;1.13;;;;;;;5.14;70.92;94880.13;5005700;28;20046;-82
2022/04/01 10:54:06;;;;;;;1.60;1.50;;;;;;;5.11;70.10;94890.81;5005002;28;20077;-81
2022/04/01 10:56:37;;;;;;;2.10;1.70;;;;;;;5.12;69.36;94885.47;5005623;28;20047;-81
2022/04/01 10:59:10;;;;;;;1.45;1.35;;;;;;;5.13;70.18;94892.22;5005240;28;20058;-81
2022/04/01 11:01:41;;;;;;;1.65;1.55;;;;;;;5.15;69.50;94889.47;5005119;28;20059;-81
2022/04/01 11:04:30;;;;;;;1.38;1.27;;;;;;;5.12;68.10;94893.22;5005419;28;20058;-81
2022/04/01 11:07:00;;;;;;;1.52;1.42;;;;;;;5.11;69.65;94898.59;5004850;28;20330;-82
2022/04/01 11:09:41;;;;;;;1.70;1.60;;;;;;;5.09;69.66;94898.75;5005569;28;20050;-81
2022/04/01 11:12:28;;;;;;;2.40;2.20;;;;;;;5.05;68.20;94896.75;5005255;28;20058;-81
2022/04/01 11:15:16;;;;;;;2.30;2.10;;;;;;;5.01;70.27;94893.75;5004153;28;20050;-81
2022/04/01 11:18:01;;;;;;;1.90;1.80;;;;;;;5.00;68.81;94899.91;5003230;28;20054;-81
2022/04/01 11:20:30;;;;;;;2.05;1.92;;;;;;;5.01;69.07;94898.09;5003902;28;20560;-81
2022/04/01 11:23:06;;;;;;;;;;;;;;;5.05;69.97;94904.50;5009460;28;20492;-82
2022/04/01 11:25:55;;;;;;;2.03;1.83;;;;;;;5.01;68.78;94903.28;5009051;28;19922;-82
2022/04/01 11:28:25;;;;;;;1.80;1.65;;;;;;;5.00;69.89;94909.44;5006899;28;20057;-81
2022/04/01 11:31:10;;;;;;;2.00;1.80;;;;;;;5.02;69.96;94908.25;5008067;28;20085;-81
2022/04/01 11:33:38;;;;;;;2.40;1.77;;;;;;;5.03;69.93;94907.28;5007623;28;20077;-82
2022/04/01 11:36:07;;;;;;;1.50;1.40;;;;;;;5.04;69.73;94910.69;5007857;28;20060;-82
2022/04/01 11:38:36;;;;;;;2.38;1.45;;;;;;;5.05;70.05;94920.00;5008049;28;20054;-81
2022/04/01 11:41:06;;;;;;;1.73;1.63;;;;;;;5.06;69.39;94919.03;5007380;28;20054;-81
2022/04/01 11:43:35;;;;;;;1.40;1.30;;;;;;;5.06;69.40;94919.81;5007709;28;20061;-82
2022/04/01 11:46:06;;;;;;;1.50;1.40;;;;;;;5.06;69.53;94919.81;5006808;28;20042;-82
2022/04/01 11:48:36;;;;;;;2.35;1.75;;;;;;;5.06;69.51;94924.22;5007949;28;20085;-81
2022/04/01 11:51:05;;;;;;;3.17;2.88;;;;;;;5.08;70.44;94919.66;5008644;28;20401;-82
2022/04/01 11:53:35;;;;;;;2.80;2.20;;;;;;;5.09;69.92;94913.47;5008107;28;20477;-81
2022/04/01 11:56:07;;;;;;;2.25;1.90;;;;;;;5.10;70.07;94917.69;5008135;28;20550;-82
2022/04/01 11:58:37;;;;;;;2.00;1.83;;;;;;;5.10;69.55;94920.25;5008417;28;20133;-82
2022/04/01 12:01:04;;;;;;;1.90;1.80;;;;;;;5.12;70.09;94915.72;5007871;28;20061;-82
2022/04/01 12:03:33;;;;;;;2.08;1.88;;;;;;;5.15;70.20;94912.72;5008541;28;20113;-81
2022/04/01 12:08:43;;;;;;;2.33;1.90;;;;;;;5.16;70.09;94919.50;5008390;28;20073;-81
2022/04/01 12:11:12;;;;;;;1.77;1.67;;;;;;;5.15;69.84;94916.09;5009364;28;20074;-81
2022/04/01 12:13:43;;;;;;;1.70;1.60;;;;;;;5.18;70.17;94922.69;5007821;28;20057;-82
2022/04/01 12:16:12;;;;;;;1.80;1.70;;;;;;;5.15;69.34;94918.69;5006761;28;20050;-81
2022/04/01 12:18:40;;;;;;;1.67;1.58;;;;;;;5.16;69.54;94927.25;5008285;28;20056;-81
2022/04/01 12:21:08;;;;;;;2.08;1.88;;;;;;;5.16;69.47;94924.69;5008230;28;20054;-82
2022/04/01 12:23:35;;;;;;;1.90;1.80;;;;;;;5.14;69.57;94918.91;5007532;28;20054;-82